createdAt,value
2022-08-22T00:02:53.826Z,2.17
2022-08-22T00:08:39.009Z,2.42
2022-08-22T00:14:01.673Z,2.67
2022-08-22T00:19:13.340Z,2.30
2022-08-22T00:24:28.772Z,2.50
2022-08-22T00:29:44.616Z,2.20
2022-08-22T00:35:12.505Z,2.20
2022-08-22T00:40:22.292Z,2.30
2022-08-22T00:45:57.501Z,2.30
2022-08-22T00:51:27.200Z,2.20
2022-08-22T00:56:46.671Z,2.47
2022-08-22T01:01:54.883Z,2.63
2022-08-22T01:06:56.865Z,2.58
2022-08-22T01:12:18.930Z,2.80
2022-08-22T01:17:34.828Z,2.92
2022-08-22T01:22:55.545Z,3.00
2022-08-22T01:28:20.144Z,3.20
2022-08-22T01:34:02.728Z,3.45
2022-08-22T01:40:08.505Z,3.60
2022-08-22T01:45:31.531Z,3.47
2022-08-22T01:50:53.011Z,3.75
2022-08-22T01:56:12.156Z,3.78
2022-08-22T02:01:32.262Z,3.85
2022-08-22T02:06:43.624Z,3.50
2022-08-22T02:11:53.285Z,3.58
2022-08-22T02:17:07.843Z,3.50
2022-08-22T02:22:44.320Z,3.28
2022-08-22T02:28:08.578Z,3.22
2022-08-22T02:33:21.248Z,3.95
2022-08-22T02:38:38.722Z,3.55
2022-08-22T02:43:50.894Z,3.13
2022-08-22T02:49:12.016Z,3.13
2022-08-22T02:54:32.736Z,3.40
2022-08-22T02:59:58.732Z,4.00
2022-08-22T03:05:26.178Z,3.33
2022-08-22T03:10:36.498Z,3.80
2022-08-22T03:15:49.338Z,3.03
2022-08-22T03:21:13.929Z,3.33
2022-08-22T03:26:38.690Z,3.47
2022-08-22T03:32:08.434Z,3.53
2022-08-22T03:37:37.613Z,3.40
2022-08-22T03:43:00.892Z,3.88
2022-08-22T03:48:29.699Z,3.58
2022-08-22T03:53:37.649Z,3.53
2022-08-22T03:58:58.446Z,3.30
2022-08-22T04:04:38.470Z,3.53
2022-08-22T04:10:19.744Z,3.45
2022-08-22T04:15:31.148Z,3.75
2022-08-22T04:20:58.534Z,4.38
2022-08-22T04:26:12.303Z,4.38
2022-08-22T04:31:22.208Z,3.35
2022-08-22T04:36:34.917Z,4.20
2022-08-22T04:41:36.863Z,3.38
2022-08-22T04:46:45.470Z,3.72
2022-08-22T04:51:56.856Z,3.95
2022-08-22T04:57:14.328Z,3.67
2022-08-22T05:02:27.559Z,3.38
2022-08-22T05:07:36.265Z,4.53
2022-08-22T05:12:43.392Z,3.50
2022-08-22T05:17:49.254Z,3.92
2022-08-22T05:22:59.414Z,4.10
2022-08-22T05:28:08.345Z,4.05
2022-08-22T05:33:30.179Z,4.43
2022-08-22T05:38:36.139Z,4.50
2022-08-22T05:43:42.027Z,4.60
2022-08-22T05:48:53.194Z,4.72
2022-08-22T05:59:32.965Z,4.60
2022-08-22T06:04:47.366Z,4.70
2022-08-22T06:10:16.321Z,5.15
2022-08-22T06:15:29.052Z,5.38
2022-08-22T06:20:49.331Z,5.18
2022-08-22T06:25:53.700Z,6.07
2022-08-22T06:30:57.604Z,6.35
2022-08-22T06:36:22.950Z,6.57
2022-08-22T06:41:30.477Z,6.30
2022-08-22T06:46:36.196Z,6.43
2022-08-22T06:51:39.232Z,6.50
2022-08-22T06:56:44.493Z,6.55
2022-08-22T07:01:59.317Z,6.82
2022-08-22T07:07:02.106Z,6.32
2022-08-22T07:12:15.839Z,6.20
2022-08-22T07:17:24.625Z,6.05
2022-08-22T07:22:31.062Z,6.10
2022-08-22T07:28:07.654Z,6.60
2022-08-22T07:33:29.374Z,6.22
2022-08-22T07:38:42.724Z,7.03
2022-08-22T07:43:49.488Z,6.85
2022-08-22T07:49:12.001Z,6.10
2022-08-22T07:54:27.388Z,7.03
2022-08-22T07:59:31.279Z,6.70
2022-08-22T08:04:40.158Z,6.07
2022-08-22T08:10:00.983Z,5.68
2022-08-22T08:20:11.521Z,5.32
2022-08-22T08:25:21.646Z,5.43
2022-08-22T08:30:29.739Z,5.67
2022-08-22T08:35:42.380Z,5.25
2022-08-22T08:41:22.616Z,5.25
2022-08-22T08:47:01.370Z,5.53
2022-08-22T08:52:15.478Z,4.63
2022-08-22T08:57:52.523Z,3.67
2022-08-22T09:02:57.234Z,3.25
2022-08-22T09:08:18.440Z,3.00
2022-08-22T09:19:19.598Z,3.28
2022-08-22T09:25:10.119Z,2.83
2022-08-22T09:30:17.139Z,1.88
2022-08-22T09:35:41.712Z,2.75
2022-08-22T09:40:52.150Z,2.20
2022-08-22T09:46:03.383Z,1.70
2022-08-22T09:51:33.480Z,2.10
2022-08-22T09:56:37.915Z,2.20
2022-08-22T10:02:15.739Z,2.28
2022-08-22T10:07:39.408Z,1.58
2022-08-22T10:12:54.824Z,1.90
2022-08-22T10:18:17.659Z,2.10
2022-08-22T10:23:23.386Z,1.73
2022-08-22T10:28:48.146Z,1.80
2022-08-22T10:34:09.692Z,2.15
2022-08-22T10:39:22.600Z,2.55
2022-08-22T10:44:43.531Z,2.05
2022-08-22T10:49:51.467Z,2.55
2022-08-22T10:55:00.651Z,2.45
2022-08-22T11:00:35.852Z,2.08
2022-08-22T11:05:41.850Z,2.25
2022-08-22T11:11:09.202Z,2.58
2022-08-22T11:16:19.157Z,2.28
2022-08-22T11:21:41.662Z,2.70
2022-08-22T11:26:51.069Z,2.28
2022-08-22T11:32:17.436Z,2.35
2022-08-22T11:37:42.239Z,2.20
2022-08-22T11:42:51.420Z,2.17
2022-08-22T11:48:08.791Z,2.20
2022-08-22T11:53:20.694Z,2.15
2022-08-22T11:58:45.109Z,2.55
2022-08-22T12:03:59.228Z,2.10
2022-08-22T12:09:10.152Z,2.28
2022-08-22T12:14:27.436Z,1.70
2022-08-22T12:19:58.822Z,2.25
2022-08-22T12:25:45.123Z,1.88
2022-08-22T12:30:57.351Z,2.17
2022-08-22T12:36:22.518Z,2.05
2022-08-22T12:42:00.631Z,1.90
2022-08-22T12:47:53.579Z,2.05
2022-08-22T12:53:02.864Z,2.15
2022-08-22T12:58:29.488Z,2.22
2022-08-22T13:03:42.112Z,1.98
2022-08-22T13:08:45.834Z,2.10
2022-08-22T13:13:56.746Z,2.40
2022-08-22T13:19:07.603Z,1.73
2022-08-22T13:24:16.910Z,2.20
2022-08-22T13:29:42.482Z,1.67
2022-08-22T13:34:50.774Z,1.90
2022-08-22T13:39:58.943Z,1.80
2022-08-22T13:45:05.378Z,1.50
2022-08-22T13:50:26.995Z,2.03
2022-08-22T13:55:55.319Z,2.00
2022-08-22T14:01:31.078Z,1.65
2022-08-22T14:06:48.963Z,1.90
2022-08-22T14:11:59.468Z,2.17
2022-08-22T14:17:02.436Z,1.42
2022-08-22T14:22:16.900Z,1.60
2022-08-22T14:27:34.896Z,1.70
2022-08-22T14:32:51.755Z,1.65
2022-08-22T14:38:12.135Z,1.70
2022-08-22T14:43:35.030Z,1.42
2022-08-22T14:49:18.355Z,1.23
2022-08-22T14:54:22.820Z,1.90
2022-08-22T14:59:38.441Z,1.90
2022-08-22T15:04:47.604Z,1.80
2022-08-22T15:09:54.720Z,1.70
2022-08-22T15:15:01.252Z,1.60
2022-08-22T15:20:26.070Z,1.70
2022-08-22T15:25:35.003Z,2.03
2022-08-22T15:30:44.612Z,1.70
2022-08-22T15:35:48.323Z,1.55
2022-08-22T15:40:51.692Z,2.33
2022-08-22T15:46:25.885Z,1.58
2022-08-22T15:51:39.814Z,1.88
2022-08-22T15:57:20.340Z,1.60
2022-08-22T16:02:33.276Z,1.35
2022-08-22T16:07:39.773Z,1.63
2022-08-22T16:12:47.661Z,1.25
2022-08-22T16:17:49.742Z,1.67
2022-08-22T16:22:56.433Z,1.60
2022-08-22T16:27:59.137Z,1.77
2022-08-22T16:33:02.621Z,1.70
2022-08-22T16:38:04.881Z,1.52
2022-08-22T16:43:18.020Z,1.80
2022-08-22T16:48:36.679Z,1.70
2022-08-22T16:53:38.888Z,1.30
2022-08-22T16:59:14.192Z,1.38
2022-08-22T17:04:37.392Z,1.33
2022-08-22T17:10:12.327Z,1.20
2022-08-22T17:15:39.500Z,1.73
2022-08-22T17:20:57.737Z,1.80
2022-08-22T17:26:38.812Z,1.50
2022-08-22T17:32:16.611Z,1.40
2022-08-22T17:37:22.398Z,1.27
2022-08-22T17:42:57.898Z,1.23
2022-08-22T17:48:19.605Z,1.75
2022-08-22T17:53:41.569Z,1.77
2022-08-22T17:59:02.683Z,1.75
2022-08-22T18:04:10.301Z,1.45
2022-08-22T18:09:26.185Z,1.70
2022-08-22T18:14:59.508Z,1.65
2022-08-22T18:20:13.117Z,1.90
2022-08-22T18:25:18.317Z,1.92
2022-08-22T18:30:26.163Z,1.40
2022-08-22T18:35:53.798Z,1.92
2022-08-22T18:41:15.829Z,2.00
2022-08-22T18:46:43.767Z,2.03
2022-08-22T18:52:05.251Z,2.20
2022-08-22T18:57:44.584Z,2.10
2022-08-22T19:03:03.390Z,2.47
2022-08-22T19:08:26.600Z,2.05
2022-08-22T19:13:40.547Z,1.88
2022-08-22T19:18:50.760Z,2.05
2022-08-22T19:23:54.969Z,1.70
2022-08-22T19:29:25.929Z,1.80
2022-08-22T19:34:28.267Z,2.00
2022-08-22T19:39:42.218Z,2.00
2022-08-22T19:44:53.590Z,2.15
2022-08-22T19:50:12.988Z,1.70
2022-08-22T19:55:37.215Z,2.00
2022-08-22T20:01:07.052Z,1.90
2022-08-22T20:06:45.479Z,2.08
2022-08-22T20:12:15.764Z,2.13
2022-08-22T20:17:24.038Z,2.30
2022-08-22T20:22:38.721Z,2.33
2022-08-22T20:27:51.495Z,2.00
2022-08-22T20:33:01.701Z,2.15
2022-08-22T20:38:07.849Z,1.80
2022-08-22T20:43:31.014Z,2.60
2022-08-22T20:48:37.831Z,1.83
2022-08-22T20:53:39.928Z,2.47
2022-08-22T20:58:48.213Z,2.20
2022-08-22T21:03:51.642Z,2.33
2022-08-22T21:09:39.934Z,2.78
2022-08-22T21:14:46.103Z,2.42
2022-08-22T21:19:48.419Z,2.45
2022-08-22T21:24:50.655Z,2.55
2022-08-22T21:29:52.930Z,2.65
2022-08-22T21:34:55.691Z,2.85
2022-08-22T21:40:32.839Z,2.67
2022-08-22T21:45:44.509Z,2.53
2022-08-22T21:50:46.566Z,2.28
2022-08-22T21:56:10.606Z,2.15
2022-08-22T22:01:32.691Z,2.28
2022-08-22T22:06:34.708Z,2.05
2022-08-22T22:11:37.956Z,2.45
2022-08-22T22:16:39.999Z,1.77
2022-08-22T22:21:42.231Z,2.58
2022-08-22T22:26:44.358Z,1.85
2022-08-22T22:31:46.424Z,2.38
2022-08-22T22:36:48.968Z,2.10
2022-08-22T22:41:51.067Z,2.28
2022-08-22T22:46:57.630Z,2.30
2022-08-22T22:52:00.374Z,2.72
2022-08-22T22:57:02.416Z,2.45
2022-08-22T23:02:14.069Z,2.22
2022-08-22T23:07:16.264Z,2.20
2022-08-22T23:12:19.028Z,2.50
2022-08-22T23:17:24.294Z,2.22
2022-08-22T23:22:26.680Z,2.90
2022-08-22T23:27:28.696Z,3.00
2022-08-22T23:32:30.726Z,2.50
2022-08-22T23:37:32.908Z,2.58
2022-08-22T23:42:35.145Z,2.72
2022-08-22T23:47:37.232Z,3.03
2022-08-22T23:52:39.291Z,2.42
2022-08-22T23:57:41.391Z,2.58
